Situs API Video Gratis Terbaik

AVDBAPI.COM

Cari katalog, periksa data, dan salin URL API bersih dari satu dasbor cepat.

Telegram Gabung komunitas Telegram untuk update!
Today
36
Pembaruan Hari Ini
Censored
314014
Video Disensor
Total
474173
Total Video

Daftar Video

Data terbaru diurutkan berdasarkan waktu pembaruan.

ID Nama CODE Kategori Diperbarui API
263267 HEYZO-2764 Minami Sakamoto - Footjob Minami Sakamoto Mantap Banget! HEYZO-2764 Tanpa sensor 2025-08-28 23:16:10 API
263266 011421_001 Rahasia Nakal Istri Berkimono 011421_001 Tanpa sensor 2025-08-28 23:16:00 API
263265 C-220125 Kayo Nishihara Wanita Matang Usia 40 Tahun C-220125 Tanpa sensor 2025-08-28 23:15:50 API
263264 072721-507 Mengambil Istri Orang yang Kurang Seks dan Membawanya Pulang Untuk Dikentot! 072721-507 Tanpa sensor 2025-08-28 23:15:40 API
263263 092221-01 Koleksi Pussy Berharga ~ Silakan Lihat Pussy Milik Rei ~ 092221-01 Tanpa sensor 2025-08-28 23:15:30 API
263261 062122-001 Aktor Populer Mengajarkan Cara Bercinta Penuh Cinta Bersama Miyamura Koi 062122-001 Tanpa sensor 2025-08-28 23:15:10 API
263260 FC2-PPV-4507072 Tanpa keringat. Tubuh bugar, kulit kencang, dan keringat musim panas. Hubungan seks besar-besaran yang tak henti-hentinya, menggoda, dan erotis dari Ma Kima Nishi! FC2-PPV-4507072 Tanpa sensor 2025-08-28 23:15:00 API
263259 PP042 Fallen Angel Gonzo No.042 Kumiko Sekuel PP042 Tanpa sensor 2025-08-28 23:14:50 API
263258 H-220823 Tomoko Suzuki H-220823 Tanpa sensor 2025-08-28 23:14:40 API
263257 021017-004 Catwalk Poison 151 Tanpa Sensor 021017-004 Tanpa sensor 2025-08-28 23:14:30 API
263256 H0930-ORI1632 Mie Hosonuma Wanita Seksi Usia 44 Tahun H0930-ORI1632 Tanpa sensor 2025-08-28 23:14:20 API
263255 HEYZO-2784 Minami [Minami] Gadis Seksi Menawan HEYZO-2784 Tanpa sensor 2025-08-28 23:14:10 API
263254 C0930-KI220127 Machiko Koda Usia 31 Tahun C0930-KI220127 Tanpa sensor 2025-08-28 23:14:00 API
263253 092321-01 Dipaksa Telan Sperma Oleh Gadis Amatir Seksi Berbikini Putih 092321-01 Tanpa sensor 2025-08-28 23:13:50 API
263252 011621_001 Godaan Manchira ~ Sang Istri Berkimono di Lingkungan Berbahaya ~ 011621_001 Tanpa sensor 2025-08-28 23:13:40 API
263251 KB1559 Team Kimura Edisi Spesial: Mahasiswi Dimasukkan Ke Dalam - KB1559 Tanpa sensor 2025-08-28 23:13:30 API
263250 H4610-KI220825 Gadis 23 Tahun Ai Nishiyama H4610-KI220825 Tanpa sensor 2025-08-28 23:13:20 API
263249 062222-001 Ensiklopedia Aktris Seksi Mai Shirakawa 062222-001 Tanpa sensor 2025-08-28 23:13:10 API
263248 HEYZO-2760 Nana Shirai [Shiraina] Main 4P bareng cewek cantik yang polos dan bersih! HEYZO-2760 Tanpa sensor 2025-08-28 23:13:00 API
263247 080321-510 Pengen Ngunyah Sperma di Payudara Istri 080321-510 Tanpa sensor 2025-08-28 23:12:50 API
263246 FC2-PPV-4500610 [Non-Uta Kaika] Super Imut! Gadis-gadis Jepang seksi yang penuh keringat dan muncratan air saat berhubungan seks panas [K] FC2-PPV-4500610 Tanpa sensor 2025-08-28 23:12:40 API
263245 C-220127 Machiko Koda, Wanita 31 Tahun C-220127 Tanpa sensor 2025-08-28 23:12:30 API
263244 H0930-KI220605 Yuko Sakayama Cantik Berusia 29 Tahun H0930-KI220605 Tanpa sensor 2025-08-28 23:12:20 API
263243 021017-003 Aku ngentot istri tetangga sebelah yang cantik 021017-003 Tanpa sensor 2025-08-28 23:12:10 API
263242 H-220825 Ai Nishiyama H-220825 Tanpa sensor 2025-08-28 23:12:00 API
263241 HEYZO-2765 Rio Yamaguchi [Rio Yamaguchi] Menikmati Amatir Berpayudara Besar yang Sangat Nikmat Vol.5 HEYZO-2765 Tanpa sensor 2025-08-28 23:11:50 API
263240 SR043 Rekaman Rekrutmen Lulusan Baru No.043 Chiharu [Rekaman Pribadi] SR043 Tanpa sensor 2025-08-28 23:11:40 API
263239 C0930-KI220129 Cantik Sekali Kaneko Chisato Usia 26 Tahun C0930-KI220129 Tanpa sensor 2025-08-28 23:11:30 API
263238 011921_001 Jalang M Koi Kurumi 011921_001 Tanpa sensor 2025-08-28 23:11:20 API
263237 FC2-PPV-4507094 Creampie Level S! Mahasiswi cantik nan polos yang ternyata aslinya sangat nakal! Petualangan musim panas bersama pria paruh baya berotot dan perubahan tak terduga FC2-PPV-4507094 Tanpa sensor 2025-08-28 23:11:10 API
263236 092421-01 Karyawan Perusahaan Produksi AV Dihukum Karena Bolos Kerja Tanpa Izin 092421-01 Tanpa sensor 2025-08-28 23:11:00 API
263235 021017-002 Cinta Terlarang Jarak Dekat ~ Karena Pengen Ngentot, Aku Datang ke Tempat Selingkuhanku ~ 021017-002 Tanpa sensor 2025-08-28 23:10:50 API
263234 H0930-KI220604 Aya Yagi Cantik Usia 40 Tahun H0930-KI220604 Tanpa sensor 2025-08-28 23:10:40 API
263233 072921-508 Janda yang baru kehilangan suami malah minta dikentot sama pervert! 072921-508 Tanpa sensor 2025-08-28 23:10:30 API
263232 H4610-ORI1788 Chiaki Kashiura Gadis 21 Tahun H4610-ORI1788 Tanpa sensor 2025-08-28 23:10:20 API
263231 HEYZO-2766 Ryu Enami [Enami Ryu] Nikmat Gila 3 Lubang Sekaligus!! Vol.2 HEYZO-2766 Tanpa sensor 2025-08-28 23:10:10 API
263230 C0930-HITOZUMA1372 Fusako Yokoyama Wanita 29 Tahun C0930-HITOZUMA1372 Tanpa sensor 2025-08-28 23:10:00 API
263229 FC2-PPV-4506821 [G-Spot / Cum Inside] Mirip seperti istri orang, dia benar-benar dibangunkan gairahnya oleh 8 paman dan merasakan kenikmatan yang luar biasa FC2-PPV-4506821 Tanpa sensor 2025-08-28 23:09:50 API
263228 062322-001 Sekali lagi, satu lagi kocokan ~ Aku minta Fujii Minami buat ngentot lagi tepat setelah syuting selesai ~ Fujii Minami 062322-001 Tanpa sensor 2025-08-28 23:09:40 API
263227 012121_001 Wanita Agresif Mikumo Airi 012121_001 Tanpa sensor 2025-08-28 23:09:30 API
263226 NKD-048-B NakedAngel Chocolate NKD-048-B Tanpa sensor 2025-08-28 23:09:20 API
263225 073121-509 Wanita Matang Bermain Api: Wajah Cantik Tapi Memeknya Suram! 073121-509 Tanpa sensor 2025-08-28 23:09:10 API
263224 H4610-KI220827 Gadis Cantik 22 Tahun Ritsuko Hirokawa H4610-KI220827 Tanpa sensor 2025-08-28 23:09:00 API
263223 092521-01 0921-01 Banjir Sperma di Dalam Vagina Gadis Amatir Anak de M yang Ditemui di Daerah Ini 092521-01 Tanpa sensor 2025-08-28 23:08:50 API
263222 021017-005 Debut Model S Tinggi 165cm 021017-005 Tanpa sensor 2025-08-28 23:08:40 API
263221 H0930-KI220607 Yuko Yonekura Wanita 28 Tahun H0930-KI220607 Tanpa sensor 2025-08-28 23:08:30 API
263220 062422-001 Aku Akan Melakukan Apa Saja Demi Pekerjaan! ~ Kontolku Didedikasikan Untuk Perusahaan Ini! ~ Kanon Kibuki 062422-001 Tanpa sensor 2025-08-28 23:08:20 API
263219 H4610-KI220828 Eri Maeda Gadis 19 Tahun yang Menggoda H4610-KI220828 Tanpa sensor 2025-08-28 23:08:10 API
263218 012321_001 Istri tetangga Sakiko Mihara yang nakal tanpa bra saat buang sampah di pagi hari 012321_001 Tanpa sensor 2025-08-28 23:08:00 API
263217 HEYZO-2767 Anri Tachibana [Anri Tachibana] Video Anri Tachibana Bocor! HEYZO-2767 Tanpa sensor 2025-08-28 23:07:50 API